createdAt,value
2022-12-09T00:00:34.474Z,5.35
2022-12-09T00:03:02.199Z,5.20
2022-12-09T00:05:29.560Z,5.19
2022-12-09T00:07:57.100Z,5.14
2022-12-09T00:10:25.869Z,5.02
2022-12-09T00:12:56.373Z,5.17
2022-12-09T00:15:25.983Z,5.35
2022-12-09T00:17:53.348Z,5.15
2022-12-09T00:20:20.947Z,5.12
2022-12-09T00:22:48.208Z,5.26
2022-12-09T00:25:15.668Z,5.41
2022-12-09T00:27:43.204Z,5.42
2022-12-09T00:30:11.828Z,5.36
2022-12-09T00:32:39.807Z,5.38
2022-12-09T00:35:07.535Z,5.28
2022-12-09T00:37:35.511Z,5.16
2022-12-09T00:40:03.286Z,5.39
2022-12-09T00:42:30.950Z,5.36
2022-12-09T00:44:58.273Z,5.52
2022-12-09T00:47:25.979Z,5.37
2022-12-09T00:49:53.626Z,5.31
2022-12-09T00:52:21.022Z,5.28
2022-12-09T00:54:48.606Z,5.04
2022-12-09T00:57:15.960Z,4.94
2022-12-09T00:59:43.457Z,4.91
2022-12-09T01:02:11.627Z,4.77
2022-12-09T01:04:39.198Z,4.73
2022-12-09T01:07:07.033Z,4.88
2022-12-09T01:09:34.954Z,4.82
2022-12-09T01:12:04.044Z,4.96
2022-12-09T01:14:31.534Z,4.99
2022-12-09T01:16:58.897Z,4.97
2022-12-09T01:19:26.425Z,5.01
2022-12-09T01:21:55.601Z,4.93
2022-12-09T01:24:23.110Z,4.80
2022-12-09T01:26:50.724Z,4.83
2022-12-09T01:29:19.604Z,4.84
2022-12-09T01:31:47.771Z,4.83
2022-12-09T01:34:15.696Z,4.79
2022-12-09T01:36:43.411Z,4.77
2022-12-09T01:39:11.089Z,4.84
2022-12-09T01:41:38.862Z,4.59
2022-12-09T01:44:26.220Z,4.55
2022-12-09T01:47:02.417Z,4.50
2022-12-09T01:49:39.120Z,4.43
2022-12-09T01:52:32.856Z,4.55
2022-12-09T01:55:00.212Z,4.48
2022-12-09T01:57:27.708Z,4.47
2022-12-09T01:59:55.542Z,4.59
2022-12-09T02:02:24.215Z,4.37
2022-12-09T02:04:52.581Z,4.54
2022-12-09T02:07:20.521Z,4.42
2022-12-09T02:09:53.496Z,4.27
2022-12-09T02:12:53.043Z,4.42
2022-12-09T02:15:39.662Z,4.32
2022-12-09T02:18:42.931Z,4.59
2022-12-09T02:21:19.816Z,4.66
2022-12-09T02:24:03.163Z,4.52
2022-12-09T02:26:38.532Z,4.31
2022-12-09T02:29:08.615Z,4.15
2022-12-09T02:31:55.769Z,4.32
2022-12-09T02:34:27.461Z,4.26
2022-12-09T02:37:25.941Z,3.97
2022-12-09T02:40:18.660Z,4.10
2022-12-09T02:42:48.266Z,4.03
2022-12-09T02:45:17.446Z,3.99
2022-12-09T02:47:51.162Z,4.09
2022-12-09T02:50:22.862Z,4.12
2022-12-09T02:52:51.749Z,4.15
2022-12-09T02:55:21.039Z,4.00
2022-12-09T02:57:51.154Z,4.16
2022-12-09T03:00:20.635Z,3.97
2022-12-09T03:02:50.911Z,4.09
2022-12-09T03:05:41.439Z,4.21
2022-12-09T03:08:09.270Z,4.23
2022-12-09T03:10:52.186Z,4.07
2022-12-09T03:13:37.739Z,4.02
2022-12-09T03:16:16.907Z,4.05
2022-12-09T03:18:49.043Z,3.89
2022-12-09T03:21:18.850Z,3.74
2022-12-09T03:23:46.820Z,3.64
2022-12-09T03:26:15.798Z,3.69
2022-12-09T03:28:47.967Z,3.46
2022-12-09T03:31:19.166Z,3.54
2022-12-09T03:33:49.683Z,3.78
2022-12-09T03:36:17.969Z,3.80
2022-12-09T03:38:47.013Z,3.78
2022-12-09T03:41:28.615Z,3.82
2022-12-09T03:44:01.700Z,3.69
2022-12-09T03:46:30.565Z,3.57
2022-12-09T03:48:58.128Z,3.50
2022-12-09T03:51:49.070Z,3.83
2022-12-09T03:54:20.988Z,3.79
2022-12-09T03:56:53.329Z,3.78
2022-12-09T03:59:21.927Z,3.92
2022-12-09T04:01:49.579Z,3.68
2022-12-09T04:04:17.294Z,3.68
2022-12-09T04:06:44.841Z,3.58
2022-12-09T04:09:12.560Z,3.49
2022-12-09T04:11:40.033Z,3.51
2022-12-09T04:14:13.683Z,3.31
2022-12-09T04:16:43.512Z,3.40
2022-12-09T04:19:10.989Z,3.65
2022-12-09T04:21:38.637Z,3.79
2022-12-09T04:24:06.523Z,3.83
2022-12-09T04:26:34.367Z,3.79
2022-12-09T04:29:01.914Z,3.92
2022-12-09T04:31:29.388Z,3.81
2022-12-09T04:33:57.435Z,3.75
2022-12-09T04:36:25.103Z,3.83
2022-12-09T04:38:52.489Z,4.22
2022-12-09T04:41:19.854Z,3.89
2022-12-09T04:43:47.471Z,3.86
2022-12-09T04:46:19.532Z,3.46
2022-12-09T04:48:47.691Z,3.42
2022-12-09T04:51:16.343Z,3.40
2022-12-09T04:53:43.900Z,3.42
2022-12-09T04:56:14.561Z,3.44
2022-12-09T04:58:43.600Z,3.48
2022-12-09T05:01:13.757Z,3.44
2022-12-09T05:03:41.379Z,3.41
2022-12-09T05:06:12.616Z,3.40
2022-12-09T05:08:41.378Z,3.43
2022-12-09T05:11:09.186Z,3.57
2022-12-09T05:13:37.009Z,3.51
2022-12-09T05:16:13.747Z,3.60
2022-12-09T05:18:43.969Z,3.48
2022-12-09T05:21:15.144Z,3.51
2022-12-09T05:23:43.061Z,3.50
2022-12-09T05:26:13.923Z,3.26
2022-12-09T05:28:41.626Z,3.23
2022-12-09T05:31:18.151Z,3.12
2022-12-09T05:33:46.793Z,3.25
2022-12-09T05:36:17.069Z,3.49
2022-12-09T05:38:45.137Z,3.47
2022-12-09T05:41:12.770Z,3.19
2022-12-09T05:43:41.068Z,3.22
2022-12-09T05:46:09.426Z,3.33
2022-12-09T05:48:37.357Z,3.21
2022-12-09T05:51:06.564Z,3.11
2022-12-09T05:53:34.630Z,3.03
2022-12-09T05:56:02.385Z,2.90
2022-12-09T05:58:30.377Z,2.82
2022-12-09T06:01:04.948Z,2.95
2022-12-09T06:03:32.623Z,3.10
2022-12-09T06:06:14.878Z,3.11
2022-12-09T06:08:43.875Z,2.94
2022-12-09T06:11:14.606Z,2.98
2022-12-09T06:13:42.919Z,2.84
2022-12-09T06:16:11.389Z,2.83
2022-12-09T06:18:39.426Z,2.82
2022-12-09T06:21:09.258Z,2.49
2022-12-09T06:23:37.319Z,2.73
2022-12-09T06:26:05.659Z,2.86
2022-12-09T06:28:34.035Z,2.85
2022-12-09T06:31:01.703Z,2.82
2022-12-09T06:33:53.770Z,2.70
2022-12-09T06:36:16.960Z,2.55
2022-12-09T06:38:44.472Z,2.67
2022-12-09T06:41:14.430Z,2.32
2022-12-09T06:43:41.978Z,2.39
2022-12-09T06:46:14.613Z,2.09
2022-12-09T06:48:42.766Z,2.07
2022-12-09T06:51:10.539Z,2.26
2022-12-09T06:53:38.590Z,2.11
2022-12-09T06:56:11.902Z,2.46
2022-12-09T06:58:41.356Z,2.69
2022-12-09T07:01:13.750Z,2.57
2022-12-09T07:03:43.767Z,1.85
2022-12-09T07:06:23.606Z,2.42
2022-12-09T07:08:51.115Z,2.57
2022-12-09T07:11:18.486Z,2.96
2022-12-09T07:13:46.085Z,3.12
2022-12-09T07:16:13.586Z,3.09
2022-12-09T07:18:41.401Z,2.92
2022-12-09T07:21:15.133Z,2.87
2022-12-09T07:23:42.888Z,2.76
2022-12-09T07:26:10.792Z,2.90
2022-12-09T07:28:42.707Z,2.98
2022-12-09T07:31:22.648Z,3.00
2022-12-09T07:33:51.718Z,2.97
2022-12-09T07:36:21.582Z,2.57
2022-12-09T07:38:57.982Z,2.80
2022-12-09T07:41:25.930Z,2.75
2022-12-09T07:43:54.426Z,2.59
2022-12-09T07:46:23.848Z,2.42
2022-12-09T07:48:51.994Z,2.71
2022-12-09T07:51:19.878Z,2.75
2022-12-09T07:53:47.837Z,3.18
2022-12-09T07:56:16.969Z,2.72
2022-12-09T07:58:47.087Z,2.49
2022-12-09T08:01:16.095Z,2.54
2022-12-09T08:03:43.827Z,2.61
2022-12-09T08:06:14.040Z,2.85
2022-12-09T08:08:42.090Z,2.82
2022-12-09T08:11:11.990Z,2.93
2022-12-09T08:13:42.452Z,3.05
2022-12-09T08:16:12.413Z,2.94
2022-12-09T08:18:41.376Z,2.73
2022-12-09T08:21:14.023Z,2.74
2022-12-09T08:23:41.901Z,2.35
2022-12-09T08:26:10.643Z,1.94
2022-12-09T08:28:38.750Z,1.83
2022-12-09T08:31:12.474Z,2.25
2022-12-09T08:33:40.775Z,2.41
2022-12-09T08:36:13.946Z,2.33
2022-12-09T08:38:42.054Z,2.31
2022-12-09T08:41:38.928Z,2.63
2022-12-09T08:44:11.082Z,2.91
2022-12-09T08:46:42.891Z,2.47
2022-12-09T08:49:11.720Z,2.46
2022-12-09T08:51:39.685Z,2.56
2022-12-09T08:54:07.745Z,2.74
2022-12-09T08:56:35.382Z,2.53
2022-12-09T08:59:03.868Z,2.62
2022-12-09T09:01:35.340Z,2.44
2022-12-09T09:04:06.466Z,2.37
2022-12-09T09:06:34.647Z,2.38
2022-12-09T09:09:03.048Z,2.55
2022-12-09T09:11:30.895Z,2.81
2022-12-09T09:13:58.782Z,2.78
2022-12-09T09:16:27.406Z,2.60
2022-12-09T09:18:55.379Z,2.75
2022-12-09T09:21:26.847Z,2.90
2022-12-09T09:23:54.814Z,2.91
2022-12-09T09:26:25.970Z,2.82
2022-12-09T09:28:55.218Z,2.81
2022-12-09T09:31:25.880Z,2.67
2022-12-09T09:33:53.937Z,2.49
2022-12-09T09:36:24.115Z,2.29
2022-12-09T09:38:55.046Z,2.10
2022-12-09T09:41:42.032Z,2.01
2022-12-09T09:44:29.669Z,1.91
2022-12-09T09:46:58.533Z,2.14
2022-12-09T09:49:57.371Z,1.72
2022-12-09T09:52:27.547Z,1.89
2022-12-09T09:54:55.835Z,2.14
2022-12-09T09:57:35.994Z,2.03
2022-12-09T10:00:30.131Z,2.35
2022-12-09T10:03:14.922Z,2.59
2022-12-09T10:05:55.204Z,2.74
2022-12-09T10:08:29.031Z,2.49
2022-12-09T10:11:19.468Z,2.18
2022-12-09T10:14:07.031Z,2.47
2022-12-09T10:16:53.302Z,2.24
2022-12-09T10:19:30.084Z,1.98
2022-12-09T10:21:59.902Z,1.61
2022-12-09T10:24:35.876Z,1.49
2022-12-09T10:27:36.626Z,1.56
2022-12-09T10:30:10.954Z,1.64
2022-12-09T10:32:40.332Z,1.58
2022-12-09T10:35:34.655Z,1.52
2022-12-09T10:38:16.254Z,1.56
2022-12-09T10:40:47.124Z,1.82
2022-12-09T10:43:35.483Z,2.16
2022-12-09T10:46:21.195Z,2.49
2022-12-09T10:48:49.750Z,2.74
2022-12-09T10:51:28.005Z,2.58
2022-12-09T10:54:19.331Z,2.10
2022-12-09T10:57:23.654Z,2.03
2022-12-09T10:59:58.468Z,2.31
2022-12-09T11:02:27.852Z,2.36
2022-12-09T11:04:55.950Z,2.60
2022-12-09T11:07:28.110Z,2.97
2022-12-09T11:09:56.352Z,2.77
2022-12-09T11:12:27.439Z,2.12
2022-12-09T11:14:58.384Z,2.28
2022-12-09T11:17:35.927Z,2.28
2022-12-09T11:20:07.519Z,1.84
2022-12-09T11:22:41.278Z,1.80
2022-12-09T11:25:12.251Z,2.00
2022-12-09T11:27:48.088Z,2.24
2022-12-09T11:30:31.894Z,1.94
2022-12-09T11:33:07.864Z,1.92
2022-12-09T11:35:44.924Z,2.09
2022-12-09T11:38:22.927Z,2.46
2022-12-09T11:41:11.951Z,2.87
2022-12-09T11:43:48.380Z,2.92
2022-12-09T11:46:27.152Z,3.03
2022-12-09T11:48:54.465Z,3.06
2022-12-09T11:51:40.790Z,3.10
2022-12-09T11:54:45.702Z,2.93
2022-12-09T11:57:32.115Z,2.85
2022-12-09T12:00:04.657Z,3.26
2022-12-09T12:02:41.057Z,2.56
2022-12-09T12:05:27.511Z,2.49
2022-12-09T12:08:22.658Z,2.58
2022-12-09T12:10:52.862Z,3.16
2022-12-09T12:13:35.468Z,3.23
2022-12-09T12:16:11.510Z,3.32
2022-12-09T12:18:47.870Z,2.64
2022-12-09T12:21:33.530Z,2.63
2022-12-09T12:24:34.301Z,2.96
2022-12-09T12:27:15.687Z,2.80
2022-12-09T12:30:06.456Z,2.61
2022-12-09T12:33:53.103Z,2.71
2022-12-09T12:36:23.515Z,2.50
2022-12-09T12:38:58.809Z,2.58
2022-12-09T12:41:39.013Z,2.55
2022-12-09T12:44:45.113Z,2.68
2022-12-09T12:47:21.103Z,2.74
2022-12-09T12:50:03.768Z,2.83
2022-12-09T12:53:01.334Z,2.97
2022-12-09T12:55:43.912Z,3.27
2022-12-09T12:58:20.475Z,2.67
2022-12-09T13:01:00.802Z,2.75
2022-12-09T13:03:36.791Z,2.78
2022-12-09T13:06:04.447Z,2.94
2022-12-09T13:08:46.903Z,2.73
2022-12-09T13:11:18.585Z,2.78
2022-12-09T13:13:53.063Z,3.00
2022-12-09T13:16:30.107Z,2.65
2022-12-09T13:19:12.505Z,2.83
2022-12-09T13:21:40.177Z,2.81
2022-12-09T13:24:27.727Z,3.01
2022-12-09T13:27:18.676Z,2.98
2022-12-09T13:29:54.857Z,3.10
2022-12-09T13:33:15.797Z,3.45
2022-12-09T13:35:54.845Z,3.69
2022-12-09T13:38:36.484Z,3.52
2022-12-09T13:41:51.665Z,3.30
2022-12-09T13:44:19.369Z,3.13
2022-12-09T13:46:46.978Z,3.45
2022-12-09T13:49:21.682Z,3.22
2022-12-09T13:51:51.643Z,3.38
2022-12-09T13:54:19.808Z,3.45
2022-12-09T13:57:13.060Z,3.27
2022-12-09T13:59:54.266Z,3.34
2022-12-09T14:02:26.180Z,3.52
2022-12-09T14:04:53.435Z,3.55
2022-12-09T14:07:30.860Z,3.44
2022-12-09T14:10:00.294Z,3.36
2022-12-09T14:12:28.468Z,3.38
2022-12-09T14:14:57.843Z,3.43
2022-12-09T14:17:25.137Z,3.36
2022-12-09T14:20:01.408Z,3.47
2022-12-09T14:22:34.216Z,3.60
2022-12-09T14:25:26.130Z,3.57
2022-12-09T14:28:11.968Z,3.61
2022-12-09T14:30:48.927Z,3.59
2022-12-09T14:33:44.750Z,3.40
2022-12-09T14:36:15.178Z,3.38
2022-12-09T14:39:16.080Z,3.38
2022-12-09T14:41:48.382Z,3.59
2022-12-09T14:44:36.169Z,3.31
2022-12-09T14:47:16.851Z,3.25
2022-12-09T14:49:49.158Z,3.46
2022-12-09T14:52:31.216Z,3.52
2022-12-09T14:55:01.781Z,3.65
2022-12-09T14:57:34.633Z,3.36
2022-12-09T15:00:02.216Z,3.40
2022-12-09T15:02:31.180Z,3.54
2022-12-09T15:05:01.516Z,3.16
2022-12-09T15:07:32.975Z,3.19
2022-12-09T15:10:03.390Z,3.13
2022-12-09T15:12:42.422Z,3.00
2022-12-09T15:15:22.420Z,2.81
2022-12-09T15:17:58.931Z,2.80
2022-12-09T15:20:35.142Z,3.02
2022-12-09T15:23:06.083Z,2.88
2022-12-09T15:25:37.082Z,2.76
2022-12-09T15:28:13.049Z,2.62
2022-12-09T15:30:40.287Z,2.82
2022-12-09T15:33:19.783Z,2.91
2022-12-09T15:35:57.595Z,3.09
2022-12-09T15:38:27.654Z,3.18
2022-12-09T15:41:15.007Z,3.28
2022-12-09T15:43:42.848Z,3.35
2022-12-09T15:46:11.214Z,3.21
2022-12-09T15:48:43.161Z,3.54
2022-12-09T15:51:15.324Z,3.45
2022-12-09T15:53:53.521Z,3.34
2022-12-09T15:56:38.683Z,3.37
2022-12-09T15:59:14.198Z,3.51
2022-12-09T16:01:47.308Z,3.51
2022-12-09T16:04:17.628Z,3.68
2022-12-09T16:06:45.011Z,3.56
2022-12-09T16:09:13.859Z,3.29
2022-12-09T16:11:45.507Z,3.26
2022-12-09T16:14:13.592Z,3.41
2022-12-09T16:16:45.470Z,3.32
2022-12-09T16:19:25.022Z,3.20
2022-12-09T16:22:06.731Z,3.31
2022-12-09T16:25:06.284Z,3.33
2022-12-09T16:27:25.798Z,3.00
2022-12-09T16:29:56.957Z,2.64
2022-12-09T16:32:34.161Z,3.09
2022-12-09T16:35:11.115Z,2.89
2022-12-09T16:37:43.947Z,2.84
2022-12-09T16:40:23.653Z,2.87
2022-12-09T16:42:53.766Z,2.96
2022-12-09T16:45:30.608Z,2.90
2022-12-09T16:47:59.138Z,2.73
2022-12-09T16:50:30.498Z,2.87
2022-12-09T16:52:58.746Z,2.80
2022-12-09T16:55:28.232Z,2.74
2022-12-09T16:57:59.000Z,3.09
2022-12-09T17:00:26.525Z,2.85
2022-12-09T17:03:05.680Z,2.89
2022-12-09T17:05:33.110Z,2.79
2022-12-09T17:08:00.568Z,2.86
2022-12-09T17:10:27.877Z,2.99
2022-12-09T17:12:55.281Z,3.05
2022-12-09T17:15:22.616Z,2.99
2022-12-09T17:17:50.032Z,3.01
2022-12-09T17:20:17.302Z,2.95
2022-12-09T17:22:44.535Z,2.74
2022-12-09T17:25:11.803Z,2.51
2022-12-09T17:27:39.291Z,2.44
2022-12-09T17:30:07.258Z,2.54
2022-12-09T17:32:34.652Z,2.53
2022-12-09T17:35:01.931Z,2.86
2022-12-09T17:37:29.268Z,3.10
2022-12-09T17:40:03.237Z,2.87
2022-12-09T17:42:31.202Z,2.84
2022-12-09T17:44:58.659Z,2.99
2022-12-09T17:47:27.172Z,2.84
2022-12-09T17:49:54.420Z,2.89
2022-12-09T17:52:21.699Z,2.95
2022-12-09T17:54:49.006Z,2.83
2022-12-09T17:57:16.254Z,3.15
2022-12-09T17:59:43.454Z,3.32
2022-12-09T18:02:11.481Z,3.19
2022-12-09T18:04:38.865Z,3.41
2022-12-09T18:07:06.088Z,3.34
2022-12-09T18:09:33.600Z,3.27
2022-12-09T18:12:00.941Z,3.17
2022-12-09T18:14:28.438Z,3.18
2022-12-09T18:16:55.941Z,3.54
2022-12-09T18:19:24.957Z,3.64
2022-12-09T18:21:55.585Z,3.55
2022-12-09T18:24:23.146Z,3.40
2022-12-09T18:26:50.806Z,3.63
2022-12-09T18:29:18.415Z,3.49
2022-12-09T18:31:46.145Z,3.41
2022-12-09T18:34:13.973Z,3.23
2022-12-09T18:36:41.324Z,3.38
2022-12-09T18:39:08.704Z,3.54
2022-12-09T18:41:36.099Z,3.56
2022-12-09T18:44:06.726Z,3.41
2022-12-09T18:46:38.924Z,3.41
2022-12-09T18:49:08.936Z,3.20
2022-12-09T18:51:36.450Z,3.21
2022-12-09T18:54:04.509Z,3.15
2022-12-09T18:56:32.451Z,2.61
2022-12-09T18:59:08.614Z,2.58
2022-12-09T19:01:40.362Z,2.68
2022-12-09T19:04:22.943Z,2.49
2022-12-09T19:06:52.288Z,2.71
2022-12-09T19:09:22.590Z,2.76
2022-12-09T19:11:50.995Z,2.93
2022-12-09T19:14:19.541Z,3.02
2022-12-09T19:16:47.085Z,2.59
2022-12-09T19:19:16.893Z,2.38
2022-12-09T19:21:45.038Z,2.40
2022-12-09T19:24:24.071Z,2.51
2022-12-09T19:26:53.782Z,2.56
2022-12-09T19:29:21.709Z,2.82
2022-12-09T19:31:50.347Z,2.68
2022-12-09T19:34:17.560Z,3.10
2022-12-09T19:36:45.992Z,3.05
2022-12-09T19:39:14.375Z,3.10
2022-12-09T19:41:43.095Z,3.14
2022-12-09T19:44:15.388Z,3.30
2022-12-09T19:46:45.830Z,3.12
2022-12-09T19:49:15.050Z,3.47
2022-12-09T19:51:42.909Z,3.18
2022-12-09T19:54:10.624Z,2.89
2022-12-09T19:56:38.014Z,3.05
2022-12-09T19:59:06.163Z,3.22
2022-12-09T20:01:36.017Z,3.35
2022-12-09T20:04:48.200Z,3.32
2022-12-09T20:07:10.547Z,3.65
2022-12-09T20:09:38.012Z,3.66
2022-12-09T20:12:05.632Z,3.49
2022-12-09T20:14:33.038Z,3.41
2022-12-09T20:17:00.564Z,2.97
2022-12-09T20:19:27.931Z,3.06
2022-12-09T20:21:55.235Z,3.04
2022-12-09T20:24:22.774Z,3.20
2022-12-09T20:26:50.180Z,3.24
2022-12-09T20:29:17.587Z,3.21
2022-12-09T20:31:45.064Z,3.08
2022-12-09T20:34:14.895Z,3.10
2022-12-09T20:36:43.580Z,3.25
2022-12-09T20:39:17.566Z,3.45
2022-12-09T20:41:45.316Z,3.38
2022-12-09T20:44:13.737Z,3.25
2022-12-09T20:46:45.971Z,3.24
2022-12-09T20:49:13.376Z,3.33
2022-12-09T20:51:48.648Z,3.35
2022-12-09T20:54:16.313Z,3.42
2022-12-09T20:56:43.920Z,3.28
2022-12-09T20:59:14.470Z,3.39
2022-12-09T21:01:43.453Z,3.40
2022-12-09T21:04:10.892Z,3.66
2022-12-09T21:06:39.466Z,3.69
2022-12-09T21:09:09.803Z,3.63
2022-12-09T21:11:38.700Z,3.83
2022-12-09T21:14:09.624Z,4.03
2022-12-09T21:16:41.482Z,4.18
2022-12-09T21:19:12.691Z,3.96
2022-12-09T21:21:41.632Z,4.01
2022-12-09T21:24:12.160Z,3.59
2022-12-09T21:26:40.408Z,3.56
2022-12-09T21:29:08.563Z,3.13
2022-12-09T21:31:38.127Z,3.07
2022-12-09T21:34:06.922Z,3.20
2022-12-09T21:36:36.462Z,3.29
2022-12-09T21:39:04.816Z,3.36
2022-12-09T21:41:34.387Z,3.04
2022-12-09T21:44:02.450Z,2.91
2022-12-09T21:46:35.413Z,3.00
2022-12-09T21:49:04.581Z,2.98
2022-12-09T21:51:35.579Z,2.88
2022-12-09T21:54:03.666Z,2.59
2022-12-09T21:56:32.830Z,2.97
2022-12-09T21:59:00.507Z,3.21
2022-12-09T22:01:34.062Z,2.98
2022-12-09T22:04:02.630Z,3.13
2022-12-09T22:06:30.520Z,3.47
2022-12-09T22:08:59.765Z,3.59
2022-12-09T22:11:29.793Z,3.58
2022-12-09T22:13:58.534Z,3.65
2022-12-09T22:16:28.712Z,3.67
2022-12-09T22:18:57.884Z,3.52
2022-12-09T22:21:28.226Z,3.42
2022-12-09T22:24:02.891Z,3.47
2022-12-09T22:26:30.945Z,3.54
2022-12-09T22:29:02.576Z,3.44
2022-12-09T22:31:32.771Z,3.24
2022-12-09T22:34:12.120Z,3.32
2022-12-09T22:36:41.055Z,3.56
2022-12-09T22:39:12.125Z,3.26
2022-12-09T22:41:39.482Z,3.25
2022-12-09T22:44:06.821Z,3.27
2022-12-09T22:46:34.410Z,3.78
2022-12-09T22:49:04.703Z,3.84
2022-12-09T22:51:34.734Z,3.27
2022-12-09T22:54:04.773Z,3.05
2022-12-09T22:56:32.007Z,3.04
2022-12-09T22:59:00.155Z,3.12
2022-12-09T23:01:29.543Z,2.91
2022-12-09T23:03:58.296Z,3.09
2022-12-09T23:06:26.667Z,3.01
2022-12-09T23:08:54.179Z,3.13
2022-12-09T23:11:26.180Z,2.48
2022-12-09T23:13:55.016Z,2.39
2022-12-09T23:16:24.014Z,2.41
2022-12-09T23:18:52.445Z,2.43
2022-12-09T23:21:27.480Z,2.41
2022-12-09T23:23:56.850Z,2.04
2022-12-09T23:26:28.235Z,2.32
2022-12-09T23:28:58.400Z,2.49
2022-12-09T23:31:32.565Z,2.54
2022-12-09T23:34:00.821Z,2.56
2022-12-09T23:36:34.483Z,2.82
2022-12-09T23:39:04.312Z,2.84
2022-12-09T23:41:31.559Z,3.22
2022-12-09T23:43:58.724Z,3.50
2022-12-09T23:46:29.566Z,3.44
2022-12-09T23:48:57.303Z,3.12
2022-12-09T23:51:27.254Z,2.81
2022-12-09T23:53:55.669Z,2.88
2022-12-09T23:56:24.506Z,2.99
2022-12-09T23:58:56.512Z,2.86
